Time;durP1;ratioP1;P1;durP2;ratioP2;P2;SDS_P1;SDS_P2;PMS_P1;PMS_P2;Temp;Humidity;BMP_temperature;BMP_pressure;BME280_temperature;BME280_humidity;BME280_pressure;Samples;Min_cycle;Max_cycle;Signal;HPM_P1;HPM_P2
2021/10/11 00:01:38;;;;;;;16.20;13.80;;;10.00;99.90;;;;;;5117435;28;20197;-44
2021/10/11 00:04:03;;;;;;;15.33;13.70;;;10.20;98.80;;;;;;5117699;28;20179;-45
2021/10/11 00:06:29;;;;;;;17.53;15.63;;;10.40;97.80;;;;;;5117726;28;20195;-45
2021/10/11 00:08:55;;;;;;;16.10;14.53;;;10.50;96.70;;;;;;5117725;28;20176;-45
2021/10/11 00:11:21;;;;;;;17.57;15.87;;;10.60;95.80;;;;;;5117863;28;20196;-45
2021/10/11 00:13:46;;;;;;;19.33;15.93;;;10.40;93.00;;;;;;5117809;28;20192;-46
2021/10/11 00:16:12;;;;;;;19.37;16.60;;;10.00;90.50;;;;;;5117477;28;20233;-45
2021/10/11 00:18:38;;;;;;;17.87;15.30;;;9.50;90.30;;;;;;5117200;28;20184;-45
2021/10/11 00:21:04;;;;;;;16.93;15.30;;;9.00;90.00;;;;;;5117642;28;20863;-45
2021/10/11 00:23:30;;;;;;;17.77;15.97;;;8.50;89.80;;;;;;5118432;28;20210;-46
2021/10/11 00:25:56;;;;;;;17.57;15.77;;;8.20;90.10;;;;;;5118198;28;20281;-45
2021/10/11 00:28:21;;;;;;;19.67;17.50;;;7.80;90.40;;;;;;5118377;28;20240;-45
2021/10/11 00:30:47;;;;;;;17.40;15.70;;;7.50;90.70;;;;;;5117904;28;20485;-45
2021/10/11 00:33:13;;;;;;;19.83;17.17;;;7.20;91.30;;;;;;5117763;28;20233;-45
2021/10/11 00:35:38;;;;;;;17.97;15.53;;;7.00;91.70;;;;;;5137221;28;20500;-45
2021/10/11 00:38:04;;;;;;;19.60;15.73;;;6.80;92.20;;;;;;5138843;28;20214;-45
2021/10/11 00:40:30;;;;;;;17.40;15.60;;;6.60;92.60;;;;;;5138302;28;20625;-45
2021/10/11 00:42:56;;;;;;;18.27;15.93;;;6.50;93.00;;;;;;5120027;28;20243;-45
2021/10/11 00:45:21;;;;;;;18.20;16.17;;;6.30;93.20;;;;;;5138426;28;20441;-45
2021/10/11 00:47:47;;;;;;;17.77;15.87;;;6.20;93.50;;;;;;5137612;28;20478;-45
2021/10/11 00:50:13;;;;;;;17.80;16.00;;;6.10;93.80;;;;;;5138756;28;20187;-45
2021/10/11 00:52:38;;;;;;;17.50;14.77;;;6.00;94.10;;;;;;5138679;28;20509;-45
2021/10/11 00:55:05;;;;;;;17.43;15.60;;;6.00;94.20;;;;;;5137895;28;20577;-45
2021/10/11 00:57:31;;;;;;;17.40;15.67;;;5.90;94.40;;;;;;5138034;28;20521;-46
2021/10/11 00:59:56;;;;;;;18.30;16.30;;;5.80;94.50;;;;;;5131834;28;20541;-45
2021/10/11 01:02:22;;;;;;;17.37;15.17;;;5.80;94.60;;;;;;5136350;28;20178;-45
2021/10/11 01:04:48;;;;;;;18.63;16.67;;;5.70;94.70;;;;;;5119879;28;20179;-45
2021/10/11 01:07:14;;;;;;;17.43;15.60;;;5.70;94.90;;;;;;5139844;27;20692;-45
2021/10/11 01:09:40;;;;;;;18.70;16.73;;;5.60;95.00;;;;;;5142112;27;20433;-45
2021/10/11 01:12:05;;;;;;;18.10;15.63;;;5.60;95.20;;;;;;5142437;27;20460;-45
2021/10/11 01:14:31;;;;;;;18.30;15.17;;;5.50;95.30;;;;;;5142042;27;20299;-45
2021/10/11 01:16:57;;;;;;;18.67;15.27;;;5.50;95.50;;;;;;5142342;27;20171;-45
2021/10/11 01:19:23;;;;;;;18.57;15.93;;;5.40;95.50;;;;;;5142537;27;20180;-45
2021/10/11 01:21:49;;;;;;;20.80;17.20;;;5.40;95.70;;;;;;5141762;27;20175;-45
2021/10/11 01:24:14;;;;;;;19.20;17.30;;;5.30;96.00;;;;;;5141834;27;20475;-46
2021/10/11 01:26:43;;;;;;;18.20;16.27;;;5.30;96.60;;;;;;5141908;27;20543;-45
2021/10/11 01:29:10;;;;;;;19.00;17.00;;;5.30;96.30;;;;;;5141948;27;20659;-45
2021/10/11 01:31:36;;;;;;;17.90;16.10;;;5.20;96.40;;;;;;5141493;27;20714;-45
2021/10/11 01:34:04;;;;;;;20.17;16.57;;;5.20;96.60;;;;;;5141407;27;20445;-45
2021/10/11 01:36:30;;;;;;;19.83;17.20;;;5.20;96.70;;;;;;5141193;27;20437;-45
2021/10/11 01:38:59;;;;;;;19.53;16.70;;;5.10;96.90;;;;;;5141671;27;20416;-45
2021/10/11 01:41:26;;;;;;;21.97;16.80;;;5.10;97.00;;;;;;5123074;27;20191;-45
2021/10/11 01:43:51;;;;;;;22.93;16.80;;;5.00;97.00;;;;;;5141552;27;20416;-45
2021/10/11 01:46:18;;;;;;;17.37;15.57;;;5.00;97.10;;;;;;5141477;27;20425;-46
2021/10/11 01:48:45;;;;;;;20.50;16.87;;;5.00;97.10;;;;;;5140003;27;20302;-46
2021/10/11 01:51:11;;;;;;;20.37;16.63;;;5.00;97.10;;;;;;5140960;27;20806;-46
2021/10/11 01:53:37;;;;;;;18.53;16.63;;;5.00;97.10;;;;;;5141162;27;20410;-46
2021/10/11 01:59:24;;;;;;;19.43;16.97;;;4.90;96.80;;;;;;5140804;27;20190;-46
2021/10/11 02:01:50;;;;;;;20.50;16.87;;;4.80;96.80;;;;;;5106552;27;20413;-46
2021/10/11 02:04:15;;;;;;;17.93;15.97;;;4.80;96.90;;;;;;5140807;27;20250;-46
2021/10/11 02:06:41;;;;;;;21.13;17.83;;;4.80;96.90;;;;;;5122816;27;20186;-46
2021/10/11 02:09:07;;;;;;;19.50;17.47;;;4.70;96.80;;;;;;5140950;27;20240;-46
2021/10/11 02:11:32;;;;;;;19.73;16.83;;;4.70;96.80;;;;;;5140523;27;20187;-46
2021/10/11 02:13:58;;;;;;;20.30;17.50;;;4.60;96.80;;;;;;5140746;27;20254;-46
2021/10/11 02:16:24;;;;;;;18.67;16.00;;;4.60;96.70;;;;;;5122341;27;20195;-46
2021/10/11 02:18:50;;;;;;;18.10;14.93;;;4.60;96.80;;;;;;5139603;27;20176;-46
2021/10/11 02:21:15;;;;;;;20.37;17.47;;;4.50;96.70;;;;;;5140534;27;20573;-46
2021/10/11 02:23:41;;;;;;;18.90;16.10;;;4.50;96.80;;;;;;5140446;27;20176;-47
2021/10/11 02:26:07;;;;;;;18.27;16.33;;;4.50;96.90;;;;;;5141160;27;20557;-46
2021/10/11 02:28:33;;;;;;;22.07;17.90;;;4.40;96.90;;;;;;5140949;27;20203;-46
2021/10/11 02:30:58;;;;;;;18.60;16.70;;;4.40;96.90;;;;;;5140651;27;20179;-46
2021/10/11 02:33:24;;;;;;;19.07;15.80;;;4.40;96.90;;;;;;5140369;27;20183;-46
2021/10/11 02:35:50;;;;;;;18.90;16.90;;;4.40;96.90;;;;;;5140338;27;20183;-46
2021/10/11 02:38:16;;;;;;;18.37;16.37;;;4.40;97.00;;;;;;5140398;27;20167;-46
2021/10/11 02:40:41;;;;;;;20.90;17.40;;;4.30;96.90;;;;;;5139942;27;20436;-46
2021/10/11 02:43:07;;;;;;;19.30;16.57;;;4.30;97.00;;;;;;5140547;27;20207;-46
2021/10/11 02:45:33;;;;;;;19.30;16.37;;;4.30;97.10;;;;;;5140061;27;20207;-46
2021/10/11 02:48:03;;;;;;;18.77;16.87;;;4.30;97.10;;;;;;5140149;27;20199;-46
2021/10/11 02:50:29;;;;;;;19.37;17.27;;;4.30;97.20;;;;;;5139851;27;20427;-46
2021/10/11 02:52:55;;;;;;;18.63;16.70;;;4.20;97.10;;;;;;5140025;27;20465;-45
2021/10/11 02:55:21;;;;;;;20.23;16.03;;;4.20;97.20;;;;;;5139595;27;20429;-46
2021/10/11 02:57:46;;;;;;;18.97;16.97;;;4.20;97.20;;;;;;5121882;27;20180;-46
2021/10/11 03:00:12;;;;;;;21.17;16.00;;;4.20;97.10;;;;;;5140121;27;20582;-46
2021/10/11 03:02:38;;;;;;;16.93;15.10;;;4.20;97.10;;;;;;5139568;27;20261;-46
2021/10/11 03:05:04;;;;;;;18.87;16.00;;;4.10;97.00;;;;;;5139523;27;20520;-46
2021/10/11 03:07:29;;;;;;;20.97;17.63;;;4.10;97.10;;;;;;5140023;27;20591;-46
2021/10/11 03:09:55;;;;;;;20.40;17.93;;;4.10;97.00;;;;;;5139995;27;20433;-46
2021/10/11 03:12:21;;;;;;;19.13;17.07;;;4.10;97.10;;;;;;5139520;27;20198;-46
2021/10/11 03:14:47;;;;;;;19.07;15.87;;;4.10;97.20;;;;;;5121385;27;20171;-46
2021/10/11 03:17:13;;;;;;;20.27;17.47;;;4.10;97.20;;;;;;5139773;27;20240;-46
2021/10/11 03:19:38;;;;;;;17.60;15.73;;;4.00;97.10;;;;;;5135557;27;20465;-46
2021/10/11 03:22:04;;;;;;;17.97;16.03;;;4.00;97.10;;;;;;5134154;27;20507;-46
2021/10/11 03:24:30;;;;;;;19.93;16.10;;;4.00;97.10;;;;;;5138141;27;20195;-46
2021/10/11 03:26:56;;;;;;;18.37;16.37;;;4.00;97.00;;;;;;5138582;27;20594;-46
2021/10/11 03:29:22;;;;;;;21.20;17.87;;;4.00;97.00;;;;;;5137639;27;20178;-46
2021/10/11 03:31:47;;;;;;;18.70;16.40;;;4.00;97.10;;;;;;5119087;27;20266;-46
2021/10/11 03:34:14;;;;;;;20.60;18.00;;;3.90;97.10;;;;;;5137142;27;20219;-46
2021/10/11 03:36:40;;;;;;;21.20;16.40;;;3.90;97.20;;;;;;5136640;27;20178;-46
2021/10/11 03:39:06;;;;;;;22.13;17.40;;;3.90;97.30;;;;;;5138311;27;20639;-45
2021/10/11 03:41:33;;;;;;;18.80;16.07;;;3.90;97.40;;;;;;5136845;27;20417;-46
2021/10/11 03:43:59;;;;;;;19.97;17.43;;;3.90;97.50;;;;;;5136979;27;20712;-46
2021/10/11 03:46:25;;;;;;;18.60;16.60;;;3.90;97.60;;;;;;5136276;27;20430;-46
2021/10/11 03:48:51;;;;;;;20.60;16.50;;;3.90;97.70;;;;;;5136009;27;20573;-46
2021/10/11 03:51:21;;;;;;;21.70;17.63;;;3.90;97.60;;;;;;5136172;27;20421;-46
2021/10/11 03:53:49;;;;;;;20.30;17.70;;;3.80;97.70;;;;;;5136642;27;20195;-46
2021/10/11 03:56:15;;;;;;;21.57;17.53;;;3.80;97.80;;;;;;5138112;27;20683;-46
2021/10/11 03:58:41;;;;;;;18.63;15.90;;;3.80;97.80;;;;;;5137602;27;20823;-46
2021/10/11 04:01:07;;;;;;;20.23;17.03;;;3.80;97.90;;;;;;5138678;27;20574;-47
2021/10/11 04:03:33;;;;;;;17.80;15.93;;;3.80;98.00;;;;;;5138893;27;20194;-47
2021/10/11 04:05:59;;;;;;;23.30;18.33;;;3.80;98.10;;;;;;5138585;27;20464;-47
2021/10/11 04:08:33;;;;;;;21.03;17.47;;;3.80;98.30;;;;;;5120405;27;20543;-47
2021/10/11 04:11:44;;;;;;;23.20;17.53;;;3.80;98.40;;;;;;5121631;28;20181;-47
2021/10/11 04:13:45;;;;;;;20.80;17.77;;;3.90;98.50;;;;;;5123392;28;20862;-47
2021/10/11 04:16:11;;;;;;;20.87;16.80;;;3.90;98.60;;;;;;5138255;28;20431;-47
2021/10/11 04:18:37;;;;;;;19.17;17.27;;;3.90;98.60;;;;;;5137756;28;20180;-47
2021/10/11 04:21:03;;;;;;;19.90;16.83;;;3.90;98.60;;;;;;5136620;28;20772;-47
2021/10/11 04:23:31;;;;;;;22.90;19.60;;;3.90;98.60;;;;;;5136111;28;20459;-48
2021/10/11 04:25:58;;;;;;;30.77;22.70;;;3.90;98.50;;;;;;5136153;28;20445;-47
2021/10/11 04:28:24;;;;;;;26.73;20.77;;;3.90;98.50;;;;;;5117146;28;20464;-47
2021/10/11 04:30:49;;;;;;;26.50;20.73;;;3.90;98.50;;;;;;5134664;28;20449;-47
2021/10/11 04:33:16;;;;;;;24.77;20.60;;;3.90;98.60;;;;;;5114015;28;20464;-48
2021/10/11 04:35:43;;;;;;;26.30;20.13;;;3.90;98.70;;;;;;5114921;28;20235;-48
2021/10/11 04:38:09;;;;;;;23.33;18.90;;;4.00;98.80;;;;;;5116064;28;20422;-47
2021/10/11 04:40:35;;;;;;;16.60;14.50;;;4.00;99.00;;;;;;5115655;28;20445;-47
2021/10/11 04:43:01;;;;;;;21.10;17.17;;;4.40;99.90;;;;;;5117456;28;20432;-47
2021/10/11 04:45:31;;;;;;;25.40;20.87;;;4.80;99.90;;;;;;5119542;28;20437;-47
2021/10/11 04:48:03;;;;;;;20.73;18.37;;;5.20;99.90;;;;;;5119263;28;20798;-47
2021/10/11 04:50:30;;;;;;;24.37;17.00;;;5.30;99.90;;;;;;5118652;28;20528;-47
2021/10/11 04:52:55;;;;;;;20.30;16.30;;;5.20;99.90;;;;;;5118193;28;20453;-47
2021/10/11 04:55:21;;;;;;;20.70;18.50;;;5.40;99.90;;;;;;5118189;28;20468;-47
2021/10/11 04:57:47;;;;;;;20.03;17.80;;;5.70;99.90;;;;;;5118397;28;20180;-47
2021/10/11 05:00:13;;;;;;;25.13;17.40;;;5.60;99.90;;;;;;5119134;28;20699;-47
2021/10/11 05:02:40;;;;;;;23.63;17.30;;;5.50;99.90;;;;;;5119582;28;20566;-47
2021/10/11 05:05:06;;;;;;;20.17;17.70;;;5.30;98.70;;;;;;5120368;28;20486;-48
2021/10/11 05:07:32;;;;;;;20.40;18.20;;;5.20;98.10;;;;;;5120903;28;20453;-47
2021/10/11 05:09:58;;;;;;;21.50;17.47;;;5.00;97.70;;;;;;5120225;28;20432;-47
2021/10/11 05:12:24;;;;;;;18.60;16.60;;;4.90;97.60;;;;;;5119191;28;20500;-47
2021/10/11 05:14:50;;;;;;;22.00;16.13;;;4.80;97.40;;;;;;5119152;28;20695;-47
2021/10/11 05:17:15;;;;;;;20.10;17.97;;;4.60;97.20;;;;;;5118205;28;20208;-48
2021/10/11 05:19:41;;;;;;;24.40;20.50;;;4.60;97.20;;;;;;5099326;28;20532;-48
2021/10/11 05:22:07;;;;;;;30.90;25.73;;;4.50;97.20;;;;;;5117545;28;20457;-48
2021/10/11 05:24:32;;;;;;;40.03;29.57;;;4.40;97.30;;;;;;5118028;28;20203;-48
2021/10/11 05:26:59;;;;;;;37.50;27.27;;;4.30;97.30;;;;;;5065053;28;20613;-47
2021/10/11 05:29:25;;;;;;;40.37;28.87;;;4.30;97.50;;;;;;5118090;28;20168;-47
2021/10/11 05:31:51;;;;;;;38.47;28.63;;;4.20;97.60;;;;;;5112280;28;20444;-47
2021/10/11 05:34:19;;;;;;;39.43;29.33;;;4.20;97.80;;;;;;5097937;28;20311;-47
2021/10/11 05:36:45;;;;;;;35.73;28.07;;;4.20;98.20;;;;;;5098265;28;20500;-47
2021/10/11 05:39:11;;;;;;;34.30;26.20;;;4.10;98.40;;;;;;5097803;28;20437;-47
2021/10/11 05:41:37;;;;;;;30.70;22.40;;;4.20;98.70;;;;;;5115283;28;20526;-48
2021/10/11 05:44:03;;;;;;;26.50;21.37;;;4.20;98.80;;;;;;5114131;28;20410;-47
2021/10/11 05:46:29;;;;;;;25.73;19.77;;;4.20;98.90;;;;;;5105935;28;20427;-48
2021/10/11 05:48:55;;;;;;;24.30;19.23;;;4.20;98.90;;;;;;5092808;28;20830;-47
2021/10/11 05:51:21;;;;;;;22.50;18.10;;;4.20;98.90;;;;;;5092168;28;20672;-47
2021/10/11 05:53:47;;;;;;;22.93;19.67;;;4.30;98.80;;;;;;5055696;28;20476;-48
2021/10/11 05:56:12;;;;;;;24.47;20.27;;;4.30;98.60;;;;;;5072428;28;20434;-47
2021/10/11 05:58:38;;;;;;;44.30;28.80;;;4.30;98.60;;;;;;5092381;28;20218;-47
2021/10/11 06:01:04;;;;;;;31.00;22.73;;;4.30;98.60;;;;;;5092810;28;20173;-48
2021/10/11 06:03:30;;;;;;;32.13;24.20;;;4.30;98.60;;;;;;5094962;28;20256;-47
2021/10/11 06:05:55;;;;;;;31.20;24.20;;;4.40;98.70;;;;;;5093710;28;20929;-47
2021/10/11 06:08:21;;;;;;;28.00;21.67;;;4.40;98.80;;;;;;5092423;28;20207;-48
2021/10/11 06:10:47;;;;;;;31.67;23.57;;;4.60;99.10;;;;;;5093224;28;20563;-47
2021/10/11 06:13:13;;;;;;;29.83;23.87;;;4.80;99.10;;;;;;5094016;28;20419;-48
2021/10/11 06:15:39;;;;;;;37.83;28.60;;;5.00;98.60;;;;;;5092942;28;20661;-48
2021/10/11 06:18:05;;;;;;;36.97;29.70;;;5.10;98.10;;;;;;5077692;28;20567;-48
2021/10/11 06:20:31;;;;;;;42.67;29.10;;;5.20;97.80;;;;;;5095209;28;20431;-48
2021/10/11 06:22:56;;;;;;;41.87;28.03;;;5.30;97.60;;;;;;5096878;28;20434;-48
2021/10/11 06:25:22;;;;;;;32.97;27.33;;;5.50;97.50;;;;;;5096391;28;20180;-48
2021/10/11 06:27:48;;;;;;;24.73;21.87;;;5.60;97.40;;;;;;5096218;28;20212;-48
2021/10/11 06:30:14;;;;;;;23.17;19.47;;;5.80;97.30;;;;;;5093019;28;20610;-48
2021/10/11 06:32:40;;;;;;;21.63;19.33;;;6.00;97.10;;;;;;5095591;28;20224;-48
2021/10/11 06:35:06;;;;;;;23.77;18.77;;;6.10;96.70;;;;;;5111199;28;20450;-47
2021/10/11 06:37:32;;;;;;;27.50;20.93;;;6.30;96.50;;;;;;5116473;28;20522;-48
2021/10/11 06:40:01;;;;;;;25.97;22.47;;;6.50;96.30;;;;;;5116140;28;20831;-48
2021/10/11 06:42:27;;;;;;;29.37;22.30;;;6.70;96.00;;;;;;5116811;28;20176;-48
2021/10/11 06:44:52;;;;;;;27.00;21.03;;;6.90;95.80;;;;;;5097948;28;20705;-48
2021/10/11 06:47:18;;;;;;;26.10;20.77;;;7.10;95.60;;;;;;5117505;28;20222;-48
2021/10/11 06:49:46;;;;;;;21.87;18.20;;;7.20;95.20;;;;;;5117524;28;20187;-48
2021/10/11 06:52:13;;;;;;;18.80;16.90;;;7.40;94.90;;;;;;5116891;28;20168;-48
2021/10/11 06:54:39;;;;;;;18.90;16.30;;;7.60;94.70;;;;;;5116964;28;20811;-47
2021/10/11 06:57:05;;;;;;;22.23;17.23;;;7.80;94.50;;;;;;5099065;28;20998;-48
2021/10/11 06:59:31;;;;;;;19.60;17.40;;;8.10;94.30;;;;;;5099250;28;20424;-48
2021/10/11 07:01:56;;;;;;;19.83;17.73;;;8.40;94.10;;;;;;5117512;28;20458;-48
2021/10/11 07:04:22;;;;;;;18.53;16.70;;;8.80;93.90;;;;;;5115690;28;20172;-48
2021/10/11 07:06:48;;;;;;;18.40;16.50;;;9.20;93.40;;;;;;5116254;28;20267;-48
2021/10/11 07:09:14;;;;;;;21.33;18.07;;;9.70;92.80;;;;;;5115852;28;20171;-47
2021/10/11 07:11:39;;;;;;;18.53;16.40;;;10.30;91.70;;;;;;5116550;28;20708;-48
2021/10/11 07:14:05;;;;;;;17.13;12.73;;;10.80;91.00;;;;;;5116679;28;20183;-48
2021/10/11 07:16:31;;;;;;;15.40;12.50;;;11.40;91.60;;;;;;5098218;28;20169;-48
2021/10/11 07:18:57;;;;;;;11.90;10.67;;;12.10;94.00;;;;;;5116686;28;20176;-48
2021/10/11 07:21:25;;;;;;;12.93;11.60;;;13.00;95.80;;;;;;5117732;28;20424;-48
2021/10/11 07:23:51;;;;;;;15.47;13.87;;;13.80;95.30;;;;;;5117125;28;20474;-48
2021/10/11 07:26:20;;;;;;;16.60;14.77;;;14.60;93.40;;;;;;5099195;28;20479;-48
2021/10/11 07:28:45;;;;;;;17.10;15.30;;;15.10;89.00;;;;;;5115440;28;20204;-48
2021/10/11 07:31:11;;;;;;;18.77;16.47;;;15.40;83.60;;;;;;5114226;28;20691;-48
2021/10/11 07:33:37;;;;;;;17.40;15.63;;;15.70;80.50;;;;;;5113862;28;20186;-48
2021/10/11 07:36:03;;;;;;;15.30;13.90;;;15.90;78.10;;;;;;5113040;28;20263;-48
2021/10/11 07:38:30;;;;;;;16.80;15.10;;;16.30;76.50;;;;;;5113875;28;20172;-48
2021/10/11 07:40:57;;;;;;;19.03;17.03;;;16.60;74.40;;;;;;5096009;28;20658;-47
2021/10/11 07:43:23;;;;;;;16.43;14.80;;;16.90;71.90;;;;;;5114712;28;20437;-48
2021/10/11 07:45:49;;;;;;;15.90;14.30;;;17.10;70.20;;;;;;5115786;28;20729;-48
2021/10/11 07:48:15;;;;;;;16.33;14.70;;;17.30;68.90;;;;;;5094752;28;20272;-48
2021/10/11 07:50:42;;;;;;;17.47;15.57;;;17.50;67.90;;;;;;5111521;28;20457;-48
2021/10/11 07:53:07;;;;;;;18.27;15.20;;;17.70;67.10;;;;;;5112748;28;20454;-48
2021/10/11 07:55:33;;;;;;;17.20;15.30;;;17.90;66.60;;;;;;5096963;28;20434;-48
2021/10/11 07:57:59;;;;;;;16.17;14.57;;;18.40;65.80;;;;;;5114801;28;20179;-48
2021/10/11 08:00:25;;;;;;;16.43;14.40;;;19.00;64.70;;;;;;5096905;28;20245;-48
2021/10/11 08:02:51;;;;;;;15.07;13.63;;;19.70;63.60;;;;;;5115898;28;20183;-48
2021/10/11 08:05:16;;;;;;;17.10;14.83;;;20.40;60.20;;;;;;5117242;28;20410;-48
2021/10/11 08:07:42;;;;;;;14.47;13.23;;;21.10;57.60;;;;;;5114802;28;20560;-48
2021/10/11 08:10:10;;;;;;;16.23;14.60;;;21.60;56.30;;;;;;5116390;28;20275;-48
2021/10/11 08:12:35;;;;;;;16.40;14.90;;;21.70;54.80;;;;;;5116115;28;20740;-48
2021/10/11 08:15:03;;;;;;;16.17;14.57;;;21.80;54.10;;;;;;5098699;28;20413;-48
2021/10/11 08:17:29;;;;;;;15.13;13.80;;;21.90;53.60;;;;;;5114899;28;20171;-48
2021/10/11 08:19:55;;;;;;;19.40;14.97;;;21.90;52.90;;;;;;5116668;28;20494;-48
2021/10/11 08:22:21;;;;;;;16.80;15.30;;;22.00;51.50;;;;;;5097971;28;20258;-48
2021/10/11 08:24:48;;;;;;;16.03;14.63;;;22.10;50.50;;;;;;5114158;28;20482;-48
2021/10/11 08:27:17;;;;;;;15.60;14.20;;;22.10;50.60;;;;;;5095932;28;20876;-48
2021/10/11 08:29:51;;;;;;;16.30;14.70;;;22.30;50.60;;;;;;5114185;28;20673;-48
2021/10/11 08:32:18;;;;;;;15.93;14.53;;;22.80;50.70;;;;;;5115164;28;20404;-48
2021/10/11 08:34:44;;;;;;;15.93;14.17;;;23.40;50.00;;;;;;5115075;28;20968;-48
2021/10/11 08:37:10;;;;;;;15.07;13.67;;;24.00;49.00;;;;;;5115859;28;20508;-48
2021/10/11 08:39:36;;;;;;;13.97;12.60;;;24.40;47.80;;;;;;5116498;28;20172;-48
2021/10/11 08:42:05;;;;;;;14.93;13.50;;;24.90;46.70;;;;;;5115805;28;20174;-48
2021/10/11 08:44:32;;;;;;;15.47;13.00;;;25.30;45.40;;;;;;5115514;28;20679;-48
2021/10/11 08:46:59;;;;;;;15.60;13.37;;;25.60;44.20;;;;;;5098044;28;20421;-49
2021/10/11 08:49:25;;;;;;;15.70;14.20;;;25.90;42.90;;;;;;5116138;28;20475;-45
2021/10/11 08:51:51;;;;;;;13.40;12.27;;;26.30;42.40;;;;;;5114973;28;20417;-46
2021/10/11 08:54:17;;;;;;;14.87;13.57;;;26.60;42.20;;;;;;5117138;28;20419;-47
2021/10/11 08:56:42;;;;;;;14.53;13.10;;;27.10;41.00;;;;;;5114973;28;20176;-46
2021/10/11 08:59:08;;;;;;;14.37;12.87;;;27.50;40.60;;;;;;5114761;28;20422;-47
2021/10/11 09:01:34;;;;;;;13.87;12.57;;;28.10;40.00;;;;;;5114063;28;20177;-47
2021/10/11 09:04:18;;;;;;;14.03;12.73;;;28.60;39.10;;;;;;5115535;28;20273;-47
2021/10/11 09:07:03;;;;;;;14.70;13.00;;;29.20;37.90;;;;;;5114581;28;20176;-47
2021/10/11 09:09:29;;;;;;;16.10;14.67;;;29.70;37.20;;;;;;5113832;28;20431;-47
2021/10/11 09:11:55;;;;;;;15.33;14.00;;;29.80;36.10;;;;;;5114959;28;20421;-47
2021/10/11 09:14:22;;;;;;;14.40;13.00;;;29.50;35.50;;;;;;5115402;28;20176;-47
2021/10/11 09:17:01;;;;;;;16.03;14.53;;;29.10;35.80;;;;;;5115118;28;20258;-47
2021/10/11 09:19:36;;;;;;;14.53;13.10;;;28.50;35.70;;;;;;5114300;28;20456;-47
2021/10/11 09:22:03;;;;;;;13.90;12.70;;;27.90;36.10;;;;;;5097106;28;20463;-47
2021/10/11 09:24:29;;;;;;;14.73;13.07;;;27.50;36.40;;;;;;5094538;28;20440;-46
2021/10/11 09:27:00;;;;;;;14.00;12.60;;;27.30;36.80;;;;;;5112297;28;20459;-47
2021/10/11 09:29:34;;;;;;;13.00;11.70;;;27.20;36.60;;;;;;5116277;28;20422;-46
2021/10/11 09:32:02;;;;;;;14.73;13.43;;;27.20;36.70;;;;;;5116366;28;20519;-47
2021/10/11 09:34:28;;;;;;;14.80;13.40;;;27.40;36.90;;;;;;5116710;28;20545;-47
2021/10/11 09:36:57;;;;;;;14.23;12.77;;;27.40;36.60;;;;;;5116452;28;20524;-46
2021/10/11 09:39:27;;;;;;;17.93;13.63;;;27.40;35.90;;;;;;5118393;28;20466;-47
2021/10/11 09:41:54;;;;;;;14.50;13.00;;;27.80;35.70;;;;;;5119886;28;20457;-47
2021/10/11 09:44:21;;;;;;;15.20;13.67;;;28.30;35.30;;;;;;5117466;28;20509;-47
2021/10/11 09:46:47;;;;;;;14.20;12.90;;;28.60;34.80;;;;;;5118254;28;20566;-47
2021/10/11 09:49:13;;;;;;;14.20;12.80;;;29.00;34.70;;;;;;5118098;28;20509;-47
2021/10/11 09:51:41;;;;;;;15.80;14.40;;;29.50;34.50;;;;;;5116778;28;20838;-47
2021/10/11 09:54:07;;;;;;;15.30;13.70;;;29.70;33.90;;;;;;5117664;28;20417;-47
2021/10/11 09:56:33;;;;;;;15.47;13.97;;;29.90;33.20;;;;;;5119020;28;20819;-41
2021/10/11 09:59:03;;;;;;;13.73;12.60;;;30.00;33.40;;;;;;5118872;28;20395;-42
2021/10/11 10:01:31;;;;;;;14.53;13.20;;;30.30;33.10;;;;;;5118785;28;20392;-42
2021/10/11 10:03:57;;;;;;;15.00;13.60;;;30.60;32.90;;;;;;5084706;28;20400;-43
2021/10/11 10:06:28;;;;;;;13.93;12.73;;;31.00;32.80;;;;;;5100463;28;20388;-42
2021/10/11 10:08:54;;;;;;;14.40;12.93;;;31.50;32.50;;;;;;5118644;28;20450;-41
2021/10/11 10:11:28;;;;;;;14.30;13.20;;;31.90;31.70;;;;;;5118254;28;20413;-42
2021/10/11 10:13:53;;;;;;;15.48;14.18;;;32.40;30.90;;;;;;5116779;28;20413;-43
2021/10/11 10:16:19;;;;;;;15.20;13.90;;;33.00;30.00;;;;;;5115199;28;20556;-44
2021/10/11 10:18:46;;;;;;;14.20;12.80;;;33.60;29.90;;;;;;5114930;28;20446;-40
2021/10/11 10:21:13;;;;;;;12.77;11.73;;;34.30;29.60;;;;;;5116142;28;20676;-40
2021/10/11 10:23:55;;;;;;;12.43;11.43;;;35.30;29.20;;;;;;5116591;28;20425;-40
2021/10/11 10:26:35;;;;;;;11.63;10.73;;;36.00;29.20;;;;;;5115830;28;20553;-40
2021/10/11 10:29:15;;;;;;;13.07;11.80;;;36.70;29.20;;;;;;5100817;28;20530;-41
2021/10/11 10:31:41;;;;;;;13.50;12.30;;;37.20;28.20;;;;;;5117590;28;20913;-38
2021/10/11 10:34:17;;;;;;;11.27;10.38;;;37.70;27.70;;;;;;5116212;28;20326;-43
2021/10/11 10:36:44;;;;;;;11.77;10.87;;;38.30;27.80;;;;;;5116305;28;20203;-40
2021/10/11 10:39:12;;;;;;;11.93;10.90;;;38.50;27.20;;;;;;5115852;28;20839;-39
2021/10/11 10:41:40;;;;;;;12.97;11.80;;;38.80;27.20;;;;;;5098609;28;20418;-41
2021/10/11 10:44:32;;;;;;;12.57;11.57;;;39.10;26.50;;;;;;5115354;28;20422;-42
2021/10/11 10:47:01;;;;;;;14.47;13.27;;;39.20;26.30;;;;;;5094737;28;20855;-42
2021/10/11 10:49:31;;;;;;;12.07;11.10;;;39.20;26.00;;;;;;5099138;28;20429;-40
2021/10/11 10:51:57;;;;;;;13.40;12.40;;;39.60;26.30;;;;;;5117821;28;20838;-43
2021/10/11 10:54:35;;;;;;;12.57;11.47;;;39.90;25.80;;;;;;5118281;28;20433;-44
2021/10/11 10:57:01;;;;;;;14.10;13.10;;;40.30;25.50;;;;;;5116538;28;20422;-41
2021/10/11 10:59:26;;;;;;;13.10;12.10;;;40.60;25.40;;;;;;5118846;28;20490;-42
2021/10/11 11:02:08;;;;;;;12.87;11.87;;;41.10;25.10;;;;;;5111191;28;20441;-43
2021/10/11 11:04:38;;;;;;;13.80;12.70;;;41.10;24.80;;;;;;5118115;28;20618;-41
2021/10/11 11:07:07;;;;;;;12.37;11.10;;;40.80;24.90;;;;;;5117394;28;20449;-41
2021/10/11 11:09:46;;;;;;;13.30;11.90;;;40.20;25.10;;;;;;5099870;28;20478;-43
2021/10/11 11:12:15;;;;;;;13.50;12.30;;;39.50;25.40;;;;;;5117642;28;20429;-42
2021/10/11 11:14:44;;;;;;;13.90;12.73;;;39.30;25.60;;;;;;5109855;28;20421;-41
2021/10/11 11:17:14;;;;;;;13.33;12.33;;;39.60;25.60;;;;;;5117432;28;20457;-41
2021/10/11 11:19:44;;;;;;;13.93;12.83;;;39.90;25.50;;;;;;5112074;28;20883;-41
2021/10/11 11:22:13;;;;;;;13.10;12.10;;;40.40;25.40;;;;;;5095917;28;20411;-42
2021/10/11 11:24:49;;;;;;;12.03;11.10;;;41.00;25.20;;;;;;5096106;28;20498;-42
2021/10/11 11:27:43;;;;;;;12.97;11.90;;;41.40;24.90;;;;;;5096246;28;20406;-44
2021/10/11 11:30:14;;;;;;;13.50;12.40;;;42.10;24.40;;;;;;5094317;28;20426;-41
2021/10/11 11:33:15;;;;;;;13.30;12.20;;;42.50;24.20;;;;;;5058892;28;20533;-41
2021/10/11 11:36:04;;;;;;;12.90;12.00;;;42.20;24.50;;;;;;4994097;28;20480;-42
2021/10/11 11:38:36;;;;;;;13.00;12.10;;;41.90;24.20;;;;;;5035797;28;20464;-42
2021/10/11 11:41:03;;;;;;;13.27;12.17;;;41.90;24.10;;;;;;5074310;28;20775;-44
2021/10/11 11:43:30;;;;;;;13.53;12.43;;;42.10;24.20;;;;;;5055619;28;20981;-42
2021/10/11 11:45:58;;;;;;;12.60;11.70;;;41.90;24.50;;;;;;5055958;28;20431;-41
2021/10/11 11:48:27;;;;;;;12.53;11.57;;;41.70;24.50;;;;;;5073128;28;20708;-42
2021/10/11 11:51:02;;;;;;;13.88;12.77;;;41.90;24.60;;;;;;5070679;28;20418;-42
2021/10/11 11:53:29;;;;;;;13.70;12.47;;;42.20;24.50;;;;;;5071575;28;20176;-41
2021/10/11 11:55:57;;;;;;;13.13;12.03;;;42.50;24.30;;;;;;5071154;28;20431;-40
2021/10/11 11:58:42;;;;;;;12.40;11.13;;;42.50;24.30;;;;;;5071995;28;20810;-42
2021/10/11 12:01:13;;;;;;;12.03;11.13;;;42.20;24.40;;;;;;5054758;28;20426;-41
2021/10/11 12:03:47;;;;;;;11.03;10.13;;;42.20;24.80;;;;;;5075398;28;20523;-42
2021/10/11 12:06:14;;;;;;;10.87;9.87;;;41.90;25.00;;;;;;5075926;28;20423;-41
2021/10/11 12:08:43;;;;;;;13.07;11.95;;;41.40;25.20;;;;;;5058426;28;20896;-43
2021/10/11 12:11:09;;;;;;;12.60;11.53;;;41.00;25.10;;;;;;5077133;28;20181;-43
2021/10/11 12:13:41;;;;;;;11.57;10.67;;;41.00;25.30;;;;;;5076176;28;20418;-45
2021/10/11 12:16:12;;;;;;;11.20;10.07;;;41.10;25.30;;;;;;5075278;28;20422;-45
2021/10/11 12:18:41;;;;;;;12.87;11.67;;;41.50;25.20;;;;;;5067395;28;20474;-42
2021/10/11 12:21:18;;;;;;;13.53;12.50;;;41.90;24.80;;;;;;5074680;28;20425;-45
2021/10/11 12:23:44;;;;;;;12.30;11.40;;;42.20;24.80;;;;;;5058112;28;20774;-43
2021/10/11 12:26:10;;;;;;;12.70;11.80;;;42.00;24.70;;;;;;5075371;28;20234;-43
2021/10/11 12:28:37;;;;;;;14.60;13.50;;;41.30;24.70;;;;;;5057687;28;20401;-41
2021/10/11 12:31:04;;;;;;;11.43;10.52;;;40.30;25.10;;;;;;5075416;28;20193;-37
2021/10/11 12:33:38;;;;;;;14.90;13.60;;;38.90;26.10;;;;;;5077224;28;20173;-40
2021/10/11 12:36:04;;;;;;;12.20;11.20;;;37.80;26.30;;;;;;5096504;28;20438;-41
2021/10/11 12:38:40;;;;;;;15.53;14.23;;;37.20;26.60;;;;;;5094530;28;20949;-37